METAR Data
IDs: Format: Raw Decoded Include TAF

Data at: 1234 UTC 17 Sep 2019

PHNL 171153Z 11005KT 10SM FEW031 BKN055 OVC070 25/21 A2990 RMK AO2 SLP125 60000 T02500211 10267 20244 57012
PHNL 171053Z 16009KT 10SM SCT025 BKN035 26/23 A2992 RMK AO2 RAE0956B35E52 SLP130 P0000 T02560228

PHNL 171232Z 1713/1818 VRB06KT P6SM VCSH SCT025 BKN050
  FM172000 10012G18KT P6SM FEW025 SCT050
  FM180400 07008KT P6SM FEW025 SCT050


PHOG 171154Z AUTO 10004KT 10SM CLR 24/18 A2990 RMK AO2 SLP129 T02440183 10294 20233 56010 TSNO
PHOG 171054Z AUTO 00000KT 10SM CLR 25/19 A2990 RMK AO2 SLP131 T02500189 TSNO

PHOG 171120Z 1712/1812 VRB05KT P6SM FEW030 SCT050
  FM172000 05015G25KT P6SM FEW030 SCT060
  FM180700 06007KT P6SM FEW030 SCT050 AMD LTD TO VIS AND WIND TIL 171600


PHKO 171210Z AUTO 23003KT 10SM SCT026 27/23 A2987 RMK AO2 T02720233 TSNO
PHKO 171202Z AUTO 22003KT 10SM BKN026 BKN032 27/23 A2987 RMK AO2 T02720228 TSNO
PHKO 171153Z AUTO 00000KT 10SM SCT028 27/22 A2987 RMK AO2 SLP117 T02720217 10283 20272 56013 TSNO
PHKO 171053Z AUTO 00000KT 10SM CLR 27/22 A2988 RMK AO2 SLP120 T02720222 TSNO

PHKO 171120Z 1712/1812 VRB06KT P6SM VCSH SCT030 BKN060
  FM172000 24009KT P6SM FEW035 SCT060
  FM180500 VRB06KT P6SM VCSH SCT030 BKN060


PHTO 171153Z AUTO 24004KT 10SM FEW027 FEW036 BKN055 24/21 A2993 RMK AO2 SLP134 60005 70005 T02390206 10261 20239 58014 TSNO $
PHTO 171053Z AUTO 23007KT 10SM SCT026 BKN037 OVC055 24/22 A2995 RMK AO2 RAE33 SLP139 P0001 T02440217 TSNO $

PHTO 171120Z 1712/1812 23005KT P6SM VCSH SCT025 BKN050
  TEMPO 1712/1716 3SM SHRA BR BKN035
  FM172000 08010KT P6SM SCT025 BKN045
  FM180500 VRB06KT 5SM SHRA BKN025 BKN045


PHLI 171231Z AUTO 13012KT 10SM BKN018 A2991 RMK AO2 TSNO $
PHLI 171153Z AUTO 09012KT 10SM FEW016 SCT021 BKN070 A2992 RMK AO2 SLPNO 60024 70024 56007 TSNO $
PHLI 171150Z AUTO 09012KT 10SM FEW016 SCT021 BKN070 A2992 RMK AO2 TSNO $
PHLI 171142Z AUTO 10013KT 10SM SCT016 BKN021 BKN047 A2992 RMK AO2 TSNO $
PHLI 171117Z AUTO 10012KT 10SM SCT015 BKN047 BKN055 A2993 RMK AO2 TSNO $
PHLI 171049Z AUTO 09011KT 10SM SCT014 BKN020 A2993 RMK AO2 WSHFT 1034 SLPNO TSNO $
PHLI 171048Z AUTO 10011KT 10SM SCT014 BKN020 A2993 RMK AO2 WSHFT 1034 TSNO $
PHLI 171040Z AUTO 09012KT 10SM BKN014 BKN020 A2993 RMK AO2 TSNO $

PHLI 171120Z 1712/1812 08009KT P6SM VCSH BKN020 BKN045
  FM171800 08010KT P6SM VCSH SCT020 BKN045